Mostar, Bosnia and Herzegovina
Current Conditions -  °F | °C
As of 2:00 PM on Tuesday 21 Oct 2014 (Local Time) from LQMO Reporting Station
Broken Clouds Broken Clouds  
Wind Chill: 66°   Ceiling: 8600
Heat Index: 66°   Visibility: 6mi
Dew Point: 55°   Wind: 2mph
Humidity: 68%   Direction: NA
Pressure: 29.94"   Gusts: NA
Location:  43.34°N, 17.81°E
Report Text: LQMO 211200Z VRB02KT 9999 SCT048 BKN086 19/13 Q1014
Loading
Personal Weather Stations






























Interactive Weather Map
Tropical Storm Tracking
New forecast layout! Learn more

10-Day Weather Forecast

Advertisements
Track Severe Weather on mobile